Tiempo atmosférico en la estación meteorológica de Santa Elena, Jaén (742 m.)



Fecha
DESCASC
Temp. máxima en grados centígrados (hora)
DESCASC
Temp. mínima en grados centígrados (hora)
DESCASC
Temp. media en grados centígrados
DESCASC
Racha de viento máxima en m/sg (hora)
DESCASC
Velocidad máxima media en intervalos de 10 minutos(hora)
DESCASC
Precipitaciones diarias en mm
DESCASC
Precipitaciones de 00:00 a 06:00 en mm
DESCASC
Precipitaciones de 06:00 a 12:00 en mm
DESCASC
Precipitaciones de 12:00 a 18:00 en mm
DESCASC
Precipitaciones de 18:00 a 24:00 en mm
DESCASC
26-11-2020 10.2 (13:40) 6.8 (20:50) 8.5 9.17 (14:50) 4.72 (15:00) 5 1 1.6 2.4 0
25-11-2020 14.6 (15:30) 7.3 (00:10) 11 12.22 (16:30) 4.44 (16:40) 3.4 0 0 0.2 3.2
24-11-2020 13.8 (16:20) 5.9 (08:10) 9.9 7.5 (13:10) 3.61 (13:20) 0 0 0 0 0
23-11-2020 15.4 (16:00) 5.3 (08:10) 10.3 5.83 (07:30) 2.5 (07:30) 0 0 0 0 0
22-11-2020 15.1 (15:30) 5.7 (00:00) 10.4 5 (15:00) 2.5 (15:00) 0 0 0 0 0
21-11-2020 16.1 (16:30) 6.8 (00:00) 11.5 8.33 (02:40) 4.17 (03:20) 0 0 0 0 0
20-11-2020 16.8 (15:20) 10.1 (00:00) 13.4 13.33 (09:00) 6.94 (09:10) 0 0 0 0 0
19-11-2020 20.3 (15:20) 12 (00:00) 16.1 11.67 (16:10) 6.94 (10:30) 0 0 0 0 0
18-11-2020 21.7 (15:00) 11.3 (00:00) 16.5 6.39 (20:30) 3.89 (16:30) -- -- -- 0 0
17-11-2020 18.7 (16:20) 11.7 (00:00) 15.2 4.17 (13:20) 1.67 (19:00) -- -- -- -- --
16-11-2020 19.7 (15:40) 12.8 (00:00) 16.3 5.28 (13:50) 2.5 (03:50) -- -- -- -- --
15-11-2020 18.5 (16:50) 11.9 (00:00) 15.2 5.83 (14:10) 2.78 (15:40) -- -- -- -- --
14-11-2020 15.1 (12:10) 11.7 (00:00) 13.4 6.39 (12:50) 2.78 (13:00) -- -- -- -- --
13-11-2020 18 (15:50) 8.7 (00:00) 13.3 5.28 (15:10) 2.22 (14:10) -- -- -- -- --
12-11-2020 16.3 (14:30) 8.3 (00:00) 12.3 4.44 (14:10) 1.94 (13:30) -- -- -- -- --
11-11-2020 17.2 (15:40) 8.5 (00:00) 12.9 7.22 (20:40) 3.33 (19:10) -- -- -- -- --
10-11-2020 16.3 (16:10) 8.2 (00:00) 12.2 7.22 (18:30) 4.72 (09:50) -- -- -- -- --
09-11-2020 15.9 (14:10) 9 (00:00) 12.4 -- (--) -- (--) -- -- -- -- --
08-11-2020 16.4 (15:50) 8 (00:00) 12.2 7.5 (15:00) 3.33 (14:10) -- -- -- -- --
07-11-2020 14.2 (16:30) 9.3 (00:00) 11.8 14.44 (04:40) 5.28 (13:10) -- -- -- -- --
06-11-2020 20.4 (14:40) 12.8 (00:00) 16.6 10.56 (22:20) 4.17 (23:59) -- -- -- -- --
05-11-2020 16.1 (16:20) 11.1 (00:00) 13.6 8.61 (02:20) 2.22 (01:20) -- -- -- -- --
04-11-2020 14.4 (00:00) 10.8 (00:00) 12.6 9.17 (01:30) 5.28 (02:00) -- -- -- -- --
03-11-2020 22.4 (15:30) 12.7 (00:00) 17.5 15.56 (19:30) 7.78 (19:30) -- -- -- -- --
02-11-2020 24 (16:40) 13.1 (00:00) 18.6 6.39 (15:10) 2.5 (15:10) -- -- -- -- --
01-11-2020 24 (16:20) 12.8 (00:00) 18.4 5.28 (05:00) 2.5 (03:20) -- -- -- -- --
31-10-2020 23.7 (15:20) 13.1 (00:00) 18.4 5.83 (16:20) 2.22 (15:20) -- -- -- -- --
30-10-2020 24 (15:50) 10.8 (00:00) 17.4 6.39 (21:00) 3.61 (19:00) -- -- -- -- --
29-10-2020 21.8 (16:50) 9.6 (00:00) 15.7 7.78 (06:00) 3.89 (13:00) -- -- -- -- --
28-10-2020 19.3 (15:30) 7.2 (00:00) 13.2 8.33 (16:50) 4.72 (17:00) -- -- -- -- --

Gráficas

Temp. máximas Temp. mínimas Temp. medias Precipitaciones Rachas de viento máximas Velocidades máximas media en intervalos de 10 minutos

Datos horarios

Fecha y hora oficial Temperatura (ºC) Velocidad del viento (km/h) Dirección del viento Racha (km/h) Dirección de racha Precipitación (mm) Presión (hPa) Tendencia (hPa) Humedad (%)
2020-11-26 23:00:00 7.4 8 Nordeste 18 Nordeste 0 920.6 -0.4 85
2020-11-26 22:00:00 7.2 8 Nordeste 16 Nordeste 0 920.7 -0.1 86
2020-11-26 21:00:00 6.8 9 Nordeste 21 Norte 0 920.9 -- 88
2020-11-26 20:00:00 7 8 Nordeste 15 Nordeste 0 921 -- 88
2020-11-26 19:00:00 7 5 Norte 9 Norte 0 920.8 -- 88
2020-11-26 18:00:00 7.4 5 Oeste 14 Oeste 0.2 920.6 -- 88
2020-11-26 17:00:00 7.8 3 Oeste 9 Norte 0 920.2 -- 88
2020-11-26 16:00:00 7.9 5 Norte 30 Sudoeste 0.8 919.9 -- 88
2020-11-26 15:00:00 8.2 17 Sudoeste 33 Sudoeste 1.4 920.1 -- 86
2020-11-26 14:00:00 9.9 7 Sudoeste 18 Sudoeste 0 919.9 -- 86
2020-11-26 13:00:00 9.9 2 Sur 8 Sudeste 0 920.1 -- 87
2020-11-26 12:00:00 9.6 3 Sur 12 Este 0.6 920.7 -- 89
2020-11-26 11:00:00 8.8 6 Este 13 Este 0.2 920.6 -- 88
2020-11-26 10:00:00 8.4 6 Nordeste 10 Nordeste 0.2 920.4 -- 88
2020-11-26 09:00:00 8.4 5 Norte 8 Nordeste 0 920.6 -- 88
2020-11-26 08:00:00 8.3 3 Noroeste 6 Norte 0 920.7 -- 88
2020-11-26 07:00:00 8.3 5 Norte 9 Nordeste 0.6 921 -- 88
2020-11-26 06:00:00 8.3 3 Norte 8 Noroeste 0.6 921.3 -- 88
2020-11-26 05:00:00 8.1 5 Noroeste 8 Noroeste 0.2 921 -- 89
2020-11-26 04:00:00 8.2 3 Nordeste 11 Este 0.2 921.2 -- 89
2020-11-26 03:00:00 7.9 3 Nordeste 16 Este 0 921.4 -- 89
2020-11-26 02:00:00 8 4 Nordeste 8 Nordeste 0 921.9 -- 89
2020-11-26 01:00:00 8.1 5 Norte 10 Nordeste 0 922.9 -- 89
2020-11-26 00:00:00 8.2 5 Nordeste 9 Nordeste 0 923.2 -- 88
2020-11-25 23:00:00 8.9 5 Nordeste 12 Norte 0 923.5 -- 88
2020-11-25 22:00:00 9.3 5 Sur 12 Sur 1.4 924.3 -- 87
2020-11-25 21:00:00 9.3 4 Sudoeste 13 Sudoeste 0.8 924.1 -- 86
2020-11-25 20:00:00 9.3 5 Oeste 20 Sudoeste 1 924.3 -- 83
2020-11-25 19:00:00 9.4 6 Oeste 16 Sudoeste 0 924 -- 80
2020-11-25 18:00:00 9.9 8 Sudoeste 18 Oeste 0 924 -- 79
2020-11-25 17:00:00 10.2 11 Oeste 44 Noroeste 0.2 924.3 -- 78
2020-11-25 16:00:00 14.2 7 Sudeste 23 Sudeste 0 923.9 -- 53
2020-11-25 15:00:00 14.3 8 Sur 19 Sur 0 924.5 -- 53
2020-11-25 14:00:00 13.9 9 Sur 28 Sur 0 925.5 -- 58
2020-11-25 13:00:00 12.9 10 Sur 24 Sur 0 926.7 -- 61
2020-11-25 12:00:00 12.4 10 Sur 26 Sur 0 927.6 -- 67
2020-11-25 11:00:00 11.2 8 Sur 18 Sur 0 928 -- 76
2020-11-25 10:00:00 9.7 6 Sur 17 Sudeste 0 928.2 -- 81
2020-11-25 09:00:00 8.9 5 Sur 12 Sudeste 0 928.3 -- 83
2020-11-25 08:00:00 8.7 4 Sur 12 Sudoeste 0 928.4 -- 82
2020-11-25 07:00:00 8.8 5 Sudoeste 13 Sudoeste 0 928.5 -- 82
2020-11-25 06:00:00 8.1 3 Oeste 12 Sudoeste 0 928.6 -- 80
2020-11-25 05:00:00 8.6 4 Sudeste 9 Este 0 929 -- 78
2020-11-25 04:00:00 8.9 4 Sur 9 Sudeste 0 929.2 -- 73
2020-11-25 03:00:00 8.6 0 Calma 5 Nordeste 0 929.3 -- 67
2020-11-25 02:00:00 8 0 Calma 5 Noroeste 0 929.7 -- 71
2020-11-25 01:00:00 7.6 4 Norte 5 Norte 0 930.4 -- 72
2020-11-25 00:00:00 7.4 4 Norte 5 Norte 0 930.9 -- 69
2020-11-24 23:00:00 8.1 3 Norte 9 Sudeste 0 931.3 -- 67
2020-11-24 22:00:00 8 2 Sur 7 Oeste 0 931.5 -- 70
2020-11-24 21:00:00 8.1 2 Noroeste 9 Sur 0 931.9 -- 64
2020-11-24 20:00:00 8.8 3 Sudoeste 7 Sudoeste 0 931.8 -- 62
2020-11-24 19:00:00 10.1 5 Sudeste 9 Sudeste 0 931.8 -- 57
2020-11-24 18:00:00 11.7 5 Sur 14 Sur 0 931.7 -- 52
2020-11-24 17:00:00 13.5 5 Sur 17 Sur 0 931.7 -- 47
2020-11-24 16:00:00 13.7 7 Sudoeste 19 Sudoeste 0 931.9 -- 44
2020-11-24 15:00:00 13.7 6 Sudoeste 17 Sur 0 932.4 -- 44
2020-11-24 14:00:00 13.2 8 Sudoeste 27 Sudoeste 0 933.2 -- 42
2020-11-24 13:00:00 12.4 11 Sudoeste 21 Sudoeste 0 934 -- 38
2020-11-24 12:00:00 12 7 Sur 14 Sur 0 934.8 -- 47
2020-11-24 11:00:00 10.6 7 Sur 14 Sur 0 935 -- 51
2020-11-24 10:00:00 8.2 2 Sudeste 6 Sudeste 0 935 -- 62
2020-11-24 09:00:00 6.6 2 Norte 5 Norte 0 934.8 -- 65
2020-11-24 08:00:00 6 3 Norte 5 Noroeste 0 934.5 -- 66
2020-11-24 07:00:00 6.4 3 Norte 6 Noroeste 0 934.4 -- 64
2020-11-24 06:00:00 6.9 4 Norte 6 Noroeste 0 934.4 -- 62
2020-11-24 05:00:00 6.9 0 Calma 5 Noroeste 0 934.4 -- 61
2020-11-24 04:00:00 7 4 Noroeste 7 Noroeste 0 934.7 -- 59
2020-11-24 03:00:00 6.8 3 Norte 5 Noroeste 0 935.2 -- 58
2020-11-24 02:00:00 7.4 4 Norte 5 Noroeste 0 935.5 -- 53
2020-11-24 01:00:00 7.9 4 Norte 5 Norte 0 935.9 -- 48
2020-11-24 00:00:00 8 4 Norte 5 Norte 0 936.3 -- 40
2020-11-23 23:00:00 8.1 0 Calma 8 Sudeste 0 936.6 -- 42
2020-11-23 22:00:00 9 2 Nordeste 6 Nordeste 0 936.5 -- 49
2020-11-23 21:00:00 9.6 4 Norte 8 Norte 0 936.6 -- 47
2020-11-23 20:00:00 10.3 5 Norte 9 Oeste 0 936.5 -- 51
2020-11-23 19:00:00 11.1 3 Sudoeste 9 Sudoeste 0 936.4 -- 48
2020-11-23 18:00:00 13.5 6 Sur 12 Sur 0 936.1 -- 41
2020-11-23 17:00:00 15.2 4 Sur 12 Sur 0 935.9 -- 33
2020-11-23 16:00:00 15.4 5 Sur 15 Sur 0 935.9 -- 30
2020-11-23 15:00:00 15.1 4 Sur 17 Sudoeste 0 936.1 -- 31
2020-11-23 14:00:00 14.9 5 Sur 14 Sudeste 0 936.4 -- 29
2020-11-23 13:00:00 14 6 Sur 13 Sur 0 936.9 -- 29
2020-11-23 12:00:00 11.9 4 Nordeste 9 Nordeste 0 937.6 -- 36
2020-11-23 11:00:00 9.2 3 Norte 6 Norte 0 937.9 -- 40
2020-11-23 10:00:00 6.7 3 Nordeste 8 Norte 0 937.6 -- 45
2020-11-23 09:00:00 5.7 5 Nordeste 15 Nordeste 0 937.3 -- 48
2020-11-23 08:00:00 5.4 6 Nordeste 21 Nordeste 0 937 -- 54
2020-11-23 07:00:00 6 8 Nordeste 20 Nordeste 0 936.7 -- 56
2020-11-23 06:00:00 6.1 5 Nordeste 18 Nordeste 0 936.6 -- 58
2020-11-23 05:00:00 6.7 7 Nordeste 19 Norte 0 936.6 -- 58
2020-11-23 04:00:00 7.2 5 Nordeste 14 Nordeste 0 936.9 -- 54
2020-11-23 03:00:00 7.9 4 Nordeste 12 Nordeste 0 936.9 -- 49
2020-11-23 02:00:00 7.8 4 Norte 8 Nordeste 0 937.1 -- 53
2020-11-23 01:00:00 8 6 Nordeste 15 Nordeste 0 937.2 -- 53
2020-11-23 00:00:00 8.1 5 Nordeste 11 Nordeste 0 937.4 -- 52
2020-11-22 23:00:00 8.4 5 Nordeste 15 Nordeste 0 937.5 -- 53
2020-11-22 22:00:00 8.4 8 Nordeste 14 Nordeste 0 937.4 -- 53
2020-11-22 21:00:00 9.4 5 Norte 8 Nordeste 0 937.2 -- 53
2020-11-22 20:00:00 10.4 6 Nordeste 13 Nordeste 0 937.1 -- 46
2020-11-22 19:00:00 11.4 8 Nordeste 15 Nordeste 0 937 -- 42
2020-11-22 18:00:00 12.9 6 Norte 15 Nordeste 0 936.7 -- 42
2020-11-22 17:00:00 14.5 9 Norte 17 Norte 0 936.6 -- 38
2020-11-22 16:00:00 15.1 4 Nordeste 18 Nordeste 0 936.4 -- 37
2020-11-22 15:00:00 14.7 9 Nordeste 18 Norte 0 936.5 -- 41
2020-11-22 14:00:00 14.2 5 Nordeste 17 Norte 0 937.1 -- 47
2020-11-22 13:00:00 12.9 5 Nordeste 13 Norte 0 937.9 -- 56
2020-11-22 12:00:00 11 4 Nordeste 8 Norte 0 938.5 -- 65
2020-11-22 11:00:00 8.9 4 Norte 6 Nordeste 0 938.9 -- 73
2020-11-22 10:00:00 6.9 3 Norte 5 Norte 0 938.7 -- 80
2020-11-22 09:00:00 5.8 3 Norte 9 Sudeste 0 938.4 -- 79
2020-11-22 08:00:00 6.1 4 Sudeste 6 Sudeste 0 937.9 -- 79
2020-11-22 07:00:00 6.3 3 Norte 5 Norte 0 937.7 -- 78
2020-11-22 06:00:00 6.8 3 Norte 5 Norte 0 937.6 -- 76
2020-11-22 05:00:00 7 2 Noroeste 5 Norte 0 937.5 -- 75
2020-11-22 04:00:00 7.3 0 Calma 6 Norte 0 937.4 -- 73
2020-11-22 03:00:00 7.6 4 Norte 5 Norte 0 937.5 -- 72
2020-11-22 02:00:00 8 2 Norte 6 Noroeste 0 937.6 -- 69
2020-11-22 01:00:00 8.7 3 Norte 5 Noroeste 0 937.7 -- 65
2020-11-22 00:00:00 9.2 2 Noroeste 5 Este 0 937.8 -- 63
2020-11-21 23:00:00 9.6 4 Noroeste 11 Este 0 937.8 -- 59
2020-11-21 22:00:00 10.2 4 Sudeste 8 Este 0 937.6 -- 58
2020-11-21 21:00:00 11.1 4 Este 9 Sudeste 0 937.5 -- 55
2020-11-21 20:00:00 11.6 4 Norte 6 Norte 0 937 -- 53
2020-11-21 19:00:00 12.7 3 Este 7 Sudeste 0 936.9 -- 48
2020-11-21 18:00:00 14.4 6 Sudeste 8 Sudeste 0 936.5 -- 45
2020-11-21 17:00:00 16 4 Sudeste 12 Sudeste 0 936.1 -- 42
2020-11-21 16:00:00 15.8 3 Sudoeste 13 Sudeste 0 935.8 -- 43
2020-11-21 15:00:00 15.4 4 Oeste 15 Sur 0 935.8 -- 44
2020-11-21 14:00:00 15.2 6 Sur 17 Sur 0 936.4 -- 47
2020-11-21 13:00:00 14 6 Sur 14 Sur 0 936.9 -- 53
2020-11-21 12:00:00 12.9 5 Sudeste 15 Sudeste 0 937.5 -- 55
2020-11-21 11:00:00 11.3 5 Sudeste 11 Sur 0 937.5 -- 55
2020-11-21 10:00:00 8.3 4 Noroeste 6 Sudeste 0 937 -- 49
2020-11-21 09:00:00 7.5 3 Nordeste 7 Este 0 936.7 -- 51
2020-11-21 08:00:00 7.2 0 Calma 9 Nordeste 0 936 -- 48
2020-11-21 07:00:00 7 4 Nordeste 22 Nordeste 0 935.7 -- 50
2020-11-21 06:00:00 7.1 8 Nordeste 22 Norte 0 935.7 -- 50
2020-11-21 05:00:00 7.4 14 Nordeste 26 Nordeste 0 935.7 -- 49
2020-11-21 04:00:00 7.9 11 Nordeste 28 Nordeste 0 935.9 -- 48
2020-11-21 03:00:00 8.5 12 Nordeste 30 Nordeste 0 935.7 -- 47
2020-11-21 02:00:00 9.4 12 Nordeste 23 Nordeste 0 935.8 -- 45
2020-11-21 01:00:00 10.1 13 Nordeste 26 Nordeste 0 936.3 -- 42
2020-11-21 00:00:00 11.2 13 Norte 31 Norte 0 936.4 -- 39
2020-11-20 23:00:00 12 14 Norte 34 Norte 0 936.5 -- 36
2020-11-20 22:00:00 12.3 14 Norte 36 Norte 0 936.5 -- 33
2020-11-20 21:00:00 13.2 19 Norte 33 Norte 0 936.4 -- 30
2020-11-20 20:00:00 13 14 Norte 27 Norte 0 936.4 -- 30
2020-11-20 19:00:00 13.1 14 Norte 32 Norte 0 936.5 -- 31
2020-11-20 18:00:00 13.9 15 Norte 33 Norte 0 936.4 -- 31
2020-11-20 17:00:00 15.3 17 Norte 37 Norte 0 936.3 -- 29
2020-11-20 16:00:00 16.2 21 Norte 43 Norte 0 936.5 -- 24
2020-11-20 15:00:00 16.7 20 Norte 40 Norte 0 936.5 -- 23
2020-11-20 14:00:00 15.7 5 Nordeste 27 Nordeste 0 937.4 -- 32
2020-11-20 13:00:00 14.2 13 Nordeste 41 Nordeste 0 938.3 -- 44
2020-11-20 12:00:00 12.7 19 Nordeste 37 Norte 0 938.8 -- 50
2020-11-20 11:00:00 11.7 6 Este 31 Nordeste 0 938.8 -- 58
2020-11-20 10:00:00 10.6 10 Nordeste 42 Norte 0 938.5 -- 59
2020-11-20 09:00:00 11.9 23 Norte 48 Nordeste 0 938.2 -- 50
2020-11-20 08:00:00 10.5 15 Norte 31 Norte 0 938.4 -- 69
2020-11-20 07:00:00 11.4 15 Nordeste 38 Nordeste 0 938.4 -- 70
2020-11-20 06:00:00 11.4 19 Nordeste 32 Norte 0 938.7 -- 72
2020-11-20 05:00:00 10.6 14 Norte 32 Nordeste 0 939.1 -- 76
2020-11-20 04:00:00 11.8 15 Nordeste 22 Norte 0 939 -- 72
2020-11-20 03:00:00 11.8 10 Nordeste 20 Norte 0 939.5 -- 71
2020-11-20 02:00:00 12.7 9 Nordeste 19 Nordeste 0 939.5 -- 65
2020-11-20 01:00:00 13.5 8 Nordeste 19 Nordeste 0 940.3 -- 61
2020-11-20 00:00:00 14.5 9 Nordeste 29 Nordeste 0 940.6 -- 58
2020-11-19 23:00:00 14.7 14 Nordeste 28 Nordeste 0 940.7 -- 55
2020-11-19 22:00:00 15.1 11 Nordeste 29 Nordeste 0 941 -- 54
2020-11-19 21:00:00 15.6 15 Nordeste 30 Norte 0 940.8 -- 52
2020-11-19 20:00:00 15.4 13 Norte 39 Norte 0 940.6 -- 53
2020-11-19 19:00:00 16.6 22 Norte 38 Norte 0 940 -- 50
2020-11-19 18:00:00 18.1 12 Norte 31 Norte 0 939.3 -- 44
2020-11-19 17:00:00 19.5 15 Norte 42 Norte 0 939.3 -- 41
2020-11-19 16:00:00 20.1 21 Norte 37 Norte 0 939.3 -- 39
2020-11-19 15:00:00 20 16 Norte 36 Norte 0 939.3 -- 41
2020-11-19 14:00:00 19.2 21 Norte 41 Norte 0 939.8 -- 40
2020-11-19 13:00:00 18.7 22 Norte 40 Norte 0 940.1 -- 41
2020-11-19 12:00:00 17.1 23 Norte 35 Norte 0 940.4 -- 45
2020-11-19 11:00:00 15.3 20 Nordeste 40 Norte 0 940.7 -- 52
2020-11-19 10:00:00 13.8 15 Nordeste 34 Nordeste 0 940.3 -- 61
2020-11-19 09:00:00 13.1 15 Nordeste 34 Norte 0 939.7 -- 63
2020-11-19 08:00:00 12 16 Nordeste 30 Nordeste 0 938.8 -- 65
2020-11-19 07:00:00 12.8 14 Nordeste 28 Nordeste 0 938.4 -- 64
2020-11-19 06:00:00 12.5 12 Nordeste 25 Nordeste 0 938.1 -- 66
2020-11-19 05:00:00 13.5 14 Norte 32 Nordeste 0 938.1 -- 60
2020-11-19 04:00:00 14.3 14 Norte 27 Norte 0 938.1 -- 54
2020-11-19 03:00:00 14.5 13 Norte 27 Norte 0 938 -- 50
2020-11-19 02:00:00 14.6 13 Norte 26 Norte 0 938.2 -- 50
2020-11-19 01:00:00 15 12 Nordeste 22 Nordeste 0 938.5 -- 47
2020-11-19 00:00:00 15.6 11 Nordeste 18 Nordeste 0 938.6 -- 43
2020-11-18 23:00:00 15.7 8 Nordeste 15 Norte 0 938.5 -- 48
2020-11-18 22:00:00 15.8 9 Nordeste 19 Norte 0 938.5 -- 52
2020-11-18 21:00:00 16.4 9 Norte 23 Nordeste 0 938.2 -- 47
2020-11-18 20:00:00 17 6 Nordeste 22 Nordeste 0 937.9 -- 42
2020-11-18 19:00:00 18.1 9 Nordeste 19 Nordeste 0 937.7 -- 45
2020-11-18 18:00:00 19.2 7 Norte 15 Norte 0 937.4 -- 41
2020-11-18 17:00:00 21 11 Norte 23 Norte 0 937.2 -- 33
2020-11-18 16:00:00 21.6 14 Norte 21 Nordeste 0 937.2 -- 27
2020-11-18 15:00:00 21.7 6 Nordeste 22 Nordeste 0 937.3 -- 27
2020-11-18 14:00:00 20.4 3 Nordeste 11 Este 0 937.6 -- 41
2020-11-18 13:00:00 19.6 4 Sudeste 12 Este 0 938.2 -- 42
2020-11-18 12:00:00 17.9 4 Nordeste 12 Sudeste 0 938.7 -- 45
2020-11-18 11:00:00 15.7 3 Norte 9 Nordeste 0 939 -- 60
2020-11-18 10:00:00 13.7 3 Nordeste 13 Nordeste 0 939 -- 64
2020-11-18 09:00:00 12.2 5 Nordeste 13 Nordeste -- 938.7 -- 67
2020-11-18 08:00:00 11.5 6 Nordeste 9 Nordeste -- 938.3 -- 74
2020-11-18 07:00:00 11.7 5 Norte 7 Nordeste -- 938.2 -- 75
2020-11-18 06:00:00 11.7 4 Norte 6 Noroeste -- 938 -- 75
2020-11-18 05:00:00 11.8 5 Norte 6 Noroeste -- 937.9 -- 73
2020-11-18 04:00:00 12.3 4 Norte 5 Norte -- 938.2 -- 71
2020-11-18 03:00:00 12.4 3 Noroeste 5 Norte -- 938.3 -- 71
2020-11-18 02:00:00 12.2 3 Noroeste 4 Noroeste -- 938.6 -- 72
2020-11-18 01:00:00 12.3 3 Norte 4 Norte -- 938.8 -- 70
2020-11-18 00:00:00 12.9 3 Noroeste 6 Norte -- 938.8 -- 65
2020-11-17 23:00:00 13 3 Noroeste 4 Noroeste -- 939 -- 66
2020-11-17 22:00:00 13.5 3 Sudeste 8 Nordeste -- 938.7 -- 72
2020-11-17 21:00:00 14.4 2 Norte 7 Norte -- 938.4 -- 64
2020-11-17 20:00:00 15 4 Noroeste 8 Noroeste -- 938.4 -- 64
2020-11-17 19:00:00 15.8 6 Oeste -- -- -- 938 -- 66
2020-11-17 18:00:00 17.2 4 Sur 10 Sur -- 937.7 -- 64
2020-11-17 17:00:00 18.4 4 Sur 14 Sur -- 937.5 -- 60
2020-11-17 16:00:00 18.6 6 Sur 14 Sur -- 937.5 -- 60
2020-11-17 15:00:00 18 5 Sur 13 Sudeste -- 937.5 -- 63
2020-11-17 14:00:00 16.9 4 Sudoeste 15 Sur -- 937.8 -- 70
2020-11-17 13:00:00 16.1 4 Sur 11 Sur -- 938.4 -- 74
2020-11-17 12:00:00 15.2 5 Sudeste 10 Sudeste -- 938.9 -- 85
2020-11-17 11:00:00 14.3 4 Sudeste 10 Sudeste -- 939 -- 89
2020-11-17 10:00:00 13.6 2 Sur 10 Sudoeste -- 938.6 -- 89
2020-11-17 09:00:00 12.6 4 Sudoeste 9 Sudoeste -- 938 -- 89
2020-11-17 08:00:00 12.1 2 Noroeste 5 Noroeste -- 937.4 -- 89
2020-11-17 07:00:00 12.3 2 Noroeste 6 Norte -- 937.1 -- 88
2020-11-17 06:00:00 12.1 4 Norte 6 Noroeste -- 936.9 -- 88
2020-11-17 05:00:00 11.9 0 Calma 6 Este -- 936.8 -- 87
2020-11-17 04:00:00 12 4 Nordeste 12 Nordeste -- 937 -- 87
2020-11-17 03:00:00 12.3 3 Nordeste 7 Nordeste -- 936.7 -- 87
2020-11-17 02:00:00 12.7 4 Norte 8 Nordeste -- 936.9 -- 87
2020-11-17 01:00:00 13.2 5 Nordeste 7 Nordeste -- 937.1 -- 87
2020-11-17 00:00:00 13.2 3 Norte 5 Norte -- 937.1 -- 85
2020-11-16 23:00:00 13.5 4 Noroeste 6 Norte -- 937.3 -- 85
2020-11-16 22:00:00 14 3 Noroeste 4 Noroeste -- 937.2 -- 85
2020-11-16 21:00:00 14.4 4 Sudoeste 9 Sur -- 936.9 -- 84
2020-11-16 20:00:00 15.1 3 Sur 8 Sudoeste -- 936.4 -- 81
2020-11-16 19:00:00 15.9 4 Norte 12 Sudoeste -- 935.9 -- 77
2020-11-16 18:00:00 17.3 6 Sur 12 Sur -- 935.3 -- 73
2020-11-16 17:00:00 18 2 Este 14 Norte -- 935.2 -- 71
2020-11-16 16:00:00 19.1 6 Oeste 17 Sur -- 935 -- 66
2020-11-16 15:00:00 18.9 5 Sur 18 Sur -- 935 -- 68
2020-11-16 14:00:00 19.2 8 Sur 19 Sur -- 935.1 -- 69
2020-11-16 13:00:00 18 5 Sudeste 13 Sur -- 935.6 -- 74
2020-11-16 12:00:00 16.6 5 Nordeste 10 Norte -- 936.4 -- 77
2020-11-16 11:00:00 15.2 4 Sudoeste 9 Sudoeste -- 936.2 -- 85
2020-11-16 10:00:00 13.6 0 Calma 5 Sudeste -- 935.8 -- 87
2020-11-16 09:00:00 12.9 3 Sudeste 9 Sudoeste -- 935.3 -- 86
2020-11-16 08:00:00 13.1 6 Sudoeste 10 Sudoeste -- 934.7 -- 85
2020-11-16 07:00:00 13.1 5 Sur 10 Sudoeste -- 934.3 -- 84
2020-11-16 06:00:00 13.7 5 Sudeste 12 Sudeste -- 934.1 -- 83
2020-11-16 05:00:00 14.3 3 Norte 13 Sudoeste -- 934.2 -- 80
2020-11-16 04:00:00 15 9 Oeste 15 Oeste -- 934.3 -- 79
2020-11-16 03:00:00 14.4 8 Oeste 14 Oeste -- 934.4 -- 81
2020-11-16 02:00:00 13.5 5 Oeste 9 Oeste -- 934.5 -- 82
2020-11-16 01:00:00 13.1 5 Oeste 8 Oeste -- 934.7 -- 84
2020-11-16 00:00:00 13.6 5 Sur 9 Sur -- 934.6 -- 83
2020-11-15 23:00:00 13.8 5 Sur 9 Sur -- 935 -- 82
2020-11-15 22:00:00 14.2 2 Noroeste 13 Sudoeste -- 935.2 -- 81
2020-11-15 21:00:00 14.9 4 Sudoeste 8 Sudoeste -- 935.1 -- 79
2020-11-15 20:00:00 15.2 3 Sur 10 Sur -- 935 -- 79
2020-11-15 19:00:00 15.8 5 Sudeste 9 Sur -- 934.7 -- 76
2020-11-15 18:00:00 17.2 5 Sur 14 Sudoeste -- 934.3 -- 72
2020-11-15 17:00:00 18.3 7 Sudoeste 18 Sudoeste -- 934 -- 68
2020-11-15 16:00:00 17.9 8 Sudoeste 21 Sudoeste -- 933.9 -- 69
2020-11-15 15:00:00 17.7 8 Sur 21 Sur -- 933.7 -- 70
2020-11-15 14:00:00 17 7 Sudoeste 17 Sudoeste -- 934.2 -- 73
2020-11-15 13:00:00 16 6 Sur 15 Sur -- 934.8 -- 79
2020-11-15 12:00:00 14.8 6 Sur 14 Sur -- 935.3 -- 87
2020-11-15 11:00:00 13.8 4 Sudeste 10 Sur -- 935.3 -- 89
2020-11-15 10:00:00 12.8 2 Sudoeste 10 Noroeste -- 935.2 -- 90
2020-11-15 09:00:00 12.1 4 Oeste 10 Oeste -- 934.9 -- 90
2020-11-15 08:00:00 12.3 4 Sudoeste 12 Sudoeste -- 934.6 -- 90
2020-11-15 07:00:00 12.3 5 Sudoeste 11 Sudoeste -- 933.9 -- 90
2020-11-15 06:00:00 12.1 0 Calma 8 Sudeste -- 933.6 -- 90
2020-11-15 05:00:00 12 3 Sudeste 9 Sudeste -- 933.7 -- 90
2020-11-15 04:00:00 12.3 2 Sudoeste 10 Sudoeste -- 934.3 -- 90
2020-11-15 03:00:00 12.2 6 Sudoeste 12 Sudoeste -- 934.3 -- 89
2020-11-15 02:00:00 12.5 5 Sur 11 Sudoeste -- 934.3 -- 89
2020-11-15 01:00:00 12.8 6 Sudoeste 13 Sudoeste -- 934.5 -- 89
2020-11-15 00:00:00 12.8 5 Sur 13 Sudoeste -- 934.5 -- 89
2020-11-14 23:00:00 12.8 7 Sudoeste 14 Sudoeste -- 934.6 -- 89
2020-11-14 22:00:00 12.9 5 Sudoeste 11 Sudoeste -- 934.4 -- 89
2020-11-14 21:00:00 13 4 Sur 10 Sudoeste -- 934 -- 89
2020-11-14 20:00:00 13 4 Sur 10 Sudoeste -- 933.7 -- 88
2020-11-14 19:00:00 13 4 Sudoeste 15 Sudoeste -- 933.3 -- 87
2020-11-14 18:00:00 13.1 5 Sur 15 Sur -- 932.8 -- 86
2020-11-14 17:00:00 13.4 8 Sudoeste 19 Sudoeste -- 932.5 -- 85
2020-11-14 16:00:00 13.8 9 Sudoeste 20 Sudoeste -- 932.4 -- 83
2020-11-14 15:00:00 13.9 5 Sudoeste 15 Sudoeste -- 932.4 -- 81
2020-11-14 14:00:00 13.6 4 Oeste 19 Sudoeste -- 932.7 -- 82
2020-11-14 13:00:00 14.2 10 Sudoeste 23 Sudoeste -- 933.1 -- 72
2020-11-14 12:00:00 14.9 7 Sudoeste 15 Sudoeste -- 933.4 -- 68
2020-11-14 11:00:00 14.4 4 Sudoeste 10 Sur -- 933.1 -- 74
2020-11-14 10:00:00 13 0 Calma 6 Norte -- 933 -- 75
2020-11-14 09:00:00 12 3 Norte 8 Sudeste -- 932.7 -- 76
2020-11-14 08:00:00 11.9 5 Sudeste 9 Sudeste -- 932.1 -- 76
2020-11-14 07:00:00 11.9 5 Sudeste 9 Este -- 931.9 -- 75
2020-11-14 06:00:00 11.8 3 Norte 6 Nordeste -- 931.7 -- 77
2020-11-14 05:00:00 11.8 4 Norte 9 Nordeste -- 931.7 -- 74
2020-11-14 04:00:00 13.2 4 Sur 8 Sur -- 932.2 -- 71
2020-11-14 03:00:00 13.1 3 Este 5 Nordeste -- 932 -- 63
2020-11-14 02:00:00 13.1 3 Nordeste 4 Nordeste -- 932.3 -- 63
2020-11-14 01:00:00 13.1 3 Noroeste 4 Noroeste -- 932.8 -- 62
2020-11-14 00:00:00 12.8 4 Norte 4 Norte -- 932.9 -- 63
2020-11-13 23:00:00 12.7 0 Calma 4 Norte -- 932.9 -- 65
2020-11-13 22:00:00 12.8 3 Noroeste 4 Norte -- 932.7 -- 64
2020-11-13 21:00:00 13.2 0 Calma 3 Norte -- 932.5 -- 63
2020-11-13 20:00:00 13.5 0 Calma 7 Sur -- 932.2 -- 63
2020-11-13 19:00:00 14.1 4 Sur 8 Sudoeste -- 931.8 -- 60
2020-11-13 18:00:00 15.6 5 Sudoeste 12 Sudoeste -- 931.5 -- 54
2020-11-13 17:00:00 17 5 Sudoeste 16 Sudoeste -- 931.4 -- 51
2020-11-13 16:00:00 17.7 7 Sudoeste 19 Sur -- 931.3 -- 47
2020-11-13 15:00:00 17.1 7 Sur 17 Sudoeste -- 931.5 -- 52
2020-11-13 14:00:00 16.5 7 Sur 18 Sur -- 931.8 -- 53
2020-11-13 13:00:00 15.5 4 Sur 14 Sudeste -- 932.3 -- 57
2020-11-13 12:00:00 14.3 4 Sudeste 13 Sudeste -- 932.9 -- 64
2020-11-13 11:00:00 12.9 6 Sudeste 13 Este -- 933 -- 69
2020-11-13 10:00:00 10.8 2 Nordeste 10 Sudeste -- 932.8 -- 81
2020-11-13 09:00:00 9 4 Norte 7 Norte -- 932.4 -- 82
2020-11-13 08:00:00 8.8 3 Noroeste 6 Norte -- 931.8 -- 80
2020-11-13 07:00:00 8.8 4 Noroeste 6 Norte -- 931.5 -- 78
2020-11-13 06:00:00 9.1 3 Noroeste 5 Noroeste -- 931.4 -- 74
2020-11-13 05:00:00 9.1 4 Norte 5 Norte -- 931.2 -- 73
2020-11-13 04:00:00 9.8 3 Norte 5 Norte -- 931.3 -- 71
2020-11-13 03:00:00 10 3 Norte 5 Norte -- 931.4 -- 70
2020-11-13 02:00:00 10.4 3 Norte 4 Nordeste -- 931.3 -- 66
2020-11-13 01:00:00 11.1 0 Calma 3 Oeste -- 931.7 -- 59
2020-11-13 00:00:00 11.5 2 Noroeste 4 Norte -- 931.4 -- 57
2020-11-12 23:00:00 12.1 3 Norte 4 Norte -- 931.4 -- 55
2020-11-12 22:00:00 11.7 3 Norte 6 Nordeste -- 931.3 -- 57
2020-11-12 21:00:00 11.8 4 Nordeste 5 Nordeste -- 931.2 -- 58
2020-11-12 20:00:00 12.1 4 Noroeste 9 Noroeste -- 931.2 -- 55
2020-11-12 19:00:00 12.7 4 Norte 8 Sudeste -- 931.2 -- 55
2020-11-12 18:00:00 14.3 5 Sudeste 11 Sudeste -- 930.9 -- 55
2020-11-12 17:00:00 16.3 6 Sur 12 Sudeste -- 930.8 -- 49
2020-11-12 16:00:00 16.1 5 Sudeste 15 Sudeste -- 930.6 -- 47
2020-11-12 15:00:00 16.2 5 Este 16 Sudeste -- 931 -- 44
2020-11-12 14:00:00 15.8 5 Sudeste 15 Este -- 931.5 -- 51
2020-11-12 13:00:00 14.9 3 Sur 13 Sudeste -- 932.4 -- 57
2020-11-12 12:00:00 14 3 Este 13 Sudeste -- 933.5 -- 62
2020-11-12 11:00:00 11.6 3 Este 9 Sudeste -- 933.7 -- 73
2020-11-12 10:00:00 10.4 2 Norte 6 Nordeste -- 933.8 -- 80
2020-11-12 09:00:00 9 3 Norte 5 Nordeste -- 933.5 -- 82
2020-11-12 08:00:00 8.3 4 Norte 5 Norte -- 932.9 -- 82
2020-11-12 07:00:00 8.4 4 Norte 7 Nordeste -- 932.8 -- 82
2020-11-12 06:00:00 8.7 3 Nordeste 6 Nordeste -- 933.1 -- 80
2020-11-12 05:00:00 9.1 3 Nordeste 7 Nordeste -- 933.3 -- 78
2020-11-12 04:00:00 9.8 5 Noroeste 7 Norte -- 933.6 -- 76
2020-11-12 03:00:00 9.8 2 Norte 6 Norte -- 934 -- 76
2020-11-12 02:00:00 9.9 2 Noroeste 5 Norte -- 934.2 -- 76
2020-11-12 01:00:00 10.8 2 Norte 8 Sudeste -- 934.5 -- 73
2020-11-12 00:00:00 11.8 4 Nordeste 21 Nordeste -- 934.4 -- 69
2020-11-11 23:00:00 12.1 6 Nordeste 21 Nordeste -- 934.6 -- 69
2020-11-11 22:00:00 12.4 7 Norte 20 Nordeste -- 934.7 -- 67
2020-11-11 21:00:00 12.8 9 Nordeste 26 Norte -- 934.3 -- 66
2020-11-11 20:00:00 12.9 11 Norte 23 Norte -- 934.2 -- 68
2020-11-11 19:00:00 13 9 Norte 18 Norte -- 934.2 -- 63
2020-11-11 18:00:00 15.2 5 Sur 8 Sudeste -- 933.8 -- 54
2020-11-11 17:00:00 17 3 Sudeste 12 Sudeste -- 933.5 -- 46
2020-11-11 16:00:00 17 3 Sudoeste 18 Sudeste -- 933.5 -- 45
2020-11-11 15:00:00 16.7 4 Este 12 Sudoeste -- 933.5 -- 46
2020-11-11 14:00:00 16.1 6 Sur 15 Sur -- 934.2 -- 50
2020-11-11 13:00:00 15.3 6 Sudoeste 14 Sudoeste -- 934.9 -- 55
2020-11-11 12:00:00 14.5 5 Sudeste 10 Sudeste -- 935.6 -- 63
2020-11-11 11:00:00 12.6 3 Sur 8 Sur -- 936 -- 68
2020-11-11 10:00:00 10.8 2 Norte 5 Norte -- 936 -- 77
2020-11-11 09:00:00 8.8 2 Noroeste 5 Norte -- 935.9 -- 83
2020-11-11 08:00:00 8.6 3 Nordeste 7 Norte -- 935.5 -- 83
2020-11-11 07:00:00 9 3 Norte 6 Norte -- 935.6 -- 82
2020-11-11 06:00:00 9 2 Norte 5 Norte -- 935.7 -- 81
2020-11-11 05:00:00 9.3 2 Norte 4 Norte -- 935.9 -- 78
2020-11-11 04:00:00 9.5 5 Nordeste 6 Nordeste -- 936.4 -- 77
2020-11-11 03:00:00 9.8 4 Nordeste 7 Norte -- 936.6 -- 74
2020-11-11 02:00:00 9.9 5 Norte 8 Norte -- 936.6 -- 73
2020-11-11 01:00:00 9.7 5 Norte 15 Nordeste -- 936.9 -- 75
2020-11-11 00:00:00 10.4 6 Nordeste 21 Nordeste -- 937.1 -- 73
2020-11-10 23:00:00 11 9 Nordeste 16 Nordeste -- 936.9 -- 69
2020-11-10 22:00:00 11.6 12 Norte 23 Nordeste -- 936.6 -- 68
2020-11-10 21:00:00 11.8 11 Norte 22 Nordeste -- 936.5 -- 70
2020-11-10 20:00:00 12.1 10 Norte 21 Norte -- 936.5 -- 69
2020-11-10 19:00:00 12.6 13 Norte 26 Norte -- 936.4 -- 67
2020-11-10 18:00:00 14.3 12 Norte 24 Norte -- 936.1 -- 66
2020-11-10 17:00:00 16.1 8 Norte 21 Nordeste -- 935.9 -- 55
2020-11-10 16:00:00 16.1 8 Nordeste 19 Norte -- 935.9 -- 54
2020-11-10 15:00:00 15.4 12 Nordeste 24 Norte -- 935.8 -- 59
2020-11-10 14:00:00 15.1 13 Nordeste 24 Norte -- 936.2 -- 64
2020-11-10 13:00:00 14.2 12 Nordeste 23 Norte -- 936.8 -- 69
2020-11-10 12:00:00 12.4 12 Nordeste 23 Nordeste -- 937.5 -- 81
2020-11-10 11:00:00 10.7 12 Nordeste 21 Norte -- 937.3 -- 87
2020-11-10 10:00:00 9.7 15 Nordeste 26 Norte -- 937.1 -- 88
2020-11-10 09:00:00 9.4 13 Norte 24 Norte -- 936.9 -- 89
2020-11-10 08:00:00 8.3 9 Norte 19 Norte -- 936.2 -- 88
2020-11-10 07:00:00 9 7 Norte 14 Nordeste -- 935.8 -- 88
2020-11-10 06:00:00 9.2 9 Norte 17 Norte -- 935.5 -- 87
2020-11-10 05:00:00 9.7 10 Nordeste 17 Norte -- 935.4 -- 87
2020-11-10 04:00:00 9.6 5 Nordeste 18 Nordeste -- 935.4 -- 87
2020-11-10 03:00:00 9.6 7 Nordeste 14 Nordeste -- 935.4 -- 87
2020-11-10 02:00:00 10.1 4 Nordeste 10 Nordeste -- 935.5 -- 86
2020-11-10 01:00:00 10.5 3 Nordeste 10 Este -- 935.7 -- 85
2020-11-10 00:00:00 10.6 4 Nordeste 9 Nordeste -- 935.8 -- 83
2020-11-09 23:00:00 11.1 3 Nordeste 7 Nordeste -- 935.9 -- 84
2020-11-09 22:00:00 11 0 Calma 8 Sur -- 935.7 -- 82
2020-11-09 21:00:00 11.3 2 Sur -- -- -- 935.4 -- 81
2020-11-09 20:00:00 11.9 -- -- -- -- -- 935.2 -- 78
2020-11-09 19:00:00 12.8 6 Oeste 13 Sudoeste -- 934.8 -- 75
2020-11-09 18:00:00 14.3 8 Sudoeste 18 Sur -- 934.4 -- 69
2020-11-09 17:00:00 15.5 5 Sudoeste 17 Sudoeste -- 934.1 -- 67
2020-11-09 16:00:00 15.4 7 Sur 19 Sur -- 933.8 -- 67
2020-11-09 15:00:00 15.6 6 Sur 21 Sudoeste -- 933.8 -- 65
2020-11-09 14:00:00 15.7 9 Sudoeste 24 Sur -- 934 -- 64
2020-11-09 13:00:00 15.1 8 Sudoeste 17 Sudoeste -- 934.4 -- 68
2020-11-09 12:00:00 14.4 7 Sur 16 Sur -- 935.1 -- 78
2020-11-09 11:00:00 12.9 3 Oeste 9 Sur -- 935.1 -- 85
2020-11-09 10:00:00 11.5 4 Sur 9 Sur -- 935 -- 87
2020-11-09 09:00:00 10.2 2 Norte 7 Sudoeste -- 934.4 -- 86
2020-11-09 08:00:00 9.7 3 Sur 4 Sur -- 933.7 -- 86
2020-11-09 07:00:00 9 0 Calma 5 Nordeste -- 933.2 -- 85
2020-11-09 06:00:00 9.3 0 Calma 4 Sudoeste -- 932.9 -- 84
2020-11-09 05:00:00 9.7 3 Sur 5 Sudoeste -- 932.7 -- 84
2020-11-09 04:00:00 10.1 2 Sur 4 Sur -- 932.9 -- 82
2020-11-09 03:00:00 10 0 Calma 3 Noroeste -- 933 -- 81
2020-11-09 02:00:00 10.3 2 Noroeste 4 Norte -- 933.1 -- 78
2020-11-09 01:00:00 10.4 3 Norte 5 Noroeste -- 933.4 -- 78
2020-11-09 00:00:00 10.8 2 Norte 5 Norte -- 933.4 -- 76
2020-11-08 23:00:00 11.1 3 Noroeste 5 Noroeste -- 933.6 -- 75
2020-11-08 22:00:00 11.3 3 Norte 5 Noroeste -- 933.5 -- 74
2020-11-08 21:00:00 11.8 3 Noroeste 4 Norte -- 933.6 -- 71
2020-11-08 20:00:00 12.4 4 Sudoeste 7 Sur -- 933.5 -- 69
2020-11-08 19:00:00 13.2 4 Sudoeste 9 Oeste -- 933.4 -- 66
2020-11-08 18:00:00 15.1 4 Sudoeste 17 Oeste -- 933.1 -- 60
2020-11-08 17:00:00 16.3 8 Sudoeste 20 Sudoeste -- 933.1 -- 54
2020-11-08 16:00:00 16.4 8 Oeste 27 Sur -- 933 -- 56
2020-11-08 15:00:00 15.9 10 Sudoeste 27 Sudoeste -- 933.2 -- 56
2020-11-08 14:00:00 15.4 10 Sudoeste 26 Sudoeste -- 933.6 -- 60
2020-11-08 13:00:00 14.9 9 Sur 24 Sur -- 934.1 -- 63
2020-11-08 12:00:00 13.5 7 Sur 23 Sudoeste -- 934.8 -- 71
2020-11-08 11:00:00 11.6 2 Este 9 Sudeste -- 935 -- 87
2020-11-08 10:00:00 10.6 3 Norte 10 Este -- 935.1 -- 89
2020-11-08 09:00:00 8.7 3 Norte 6 Noroeste -- 934.8 -- 89
2020-11-08 08:00:00 8 4 Norte 5 Nordeste -- 934.4 -- 89
2020-11-08 07:00:00 8.3 3 Norte 6 Este -- 934.4 -- 88
2020-11-08 06:00:00 8.6 2 Este 5 Norte -- 934.5 -- 88
2020-11-08 05:00:00 8.6 3 Norte 6 Nordeste -- 934.2 -- 88
2020-11-08 04:00:00 8.8 3 Norte 5 Norte -- 934.4 -- 88
2020-11-08 03:00:00 8.6 3 Norte 5 Noroeste -- 934.8 -- 87
2020-11-08 02:00:00 9 4 Norte 6 Noroeste -- 935.1 -- 86
2020-11-08 01:00:00 9 4 Norte 6 Norte -- 935.4 -- 85
2020-11-08 00:00:00 9.3 4 Norte 6 Norte -- 935.4 -- 83
2020-11-07 23:00:00 9.5 3 Noroeste 5 Norte -- 935.5 -- 82
2020-11-07 22:00:00 9.9 3 Norte 11 Sudeste -- 935.4 -- 80
2020-11-07 21:00:00 10.2 3 Norte 5 Nordeste -- 935.1 -- 78
2020-11-07 20:00:00 10.5 3 Norte 10 Sudoeste -- 935 -- 76
2020-11-07 19:00:00 11.6 8 Sudoeste 16 Sudoeste -- 934.6 -- 73
2020-11-07 18:00:00 13 8 Sudoeste 24 Sudoeste -- 934.2 -- 68
2020-11-07 17:00:00 14.2 10 Sudoeste 36 Sudoeste -- 933.7 -- 67
2020-11-07 16:00:00 14 17 Sudoeste 33 Sudoeste -- 933.3 -- 69
2020-11-07 15:00:00 13.6 9 Sudoeste 32 Sudoeste -- 933 -- 78
2020-11-07 14:00:00 12.4 14 Sudoeste 36 Sudoeste -- 932.9 -- 85
2020-11-07 13:00:00 12.1 13 Sudoeste 43 Sudoeste -- 932.6 -- 89
2020-11-07 12:00:00 11.8 15 Sudoeste 40 Sudoeste -- 932.6 -- 90
2020-11-07 11:00:00 11.4 13 Sudoeste 40 Sudoeste -- 931.8 -- 90
2020-11-07 10:00:00 11.2 11 Sur 32 Sur -- 930.9 -- 90
2020-11-07 09:00:00 10.5 8 Sur 26 Sudoeste -- 929.4 -- 90
2020-11-07 08:00:00 9.8 3 Nordeste 19 Sudeste -- 928.4 -- 89
2020-11-07 07:00:00 9.5 5 Sudeste 12 Sudeste -- 927.3 -- 89
2020-11-07 06:00:00 9.4 8 Sudoeste 24 Sudoeste -- 927.4 -- 88
2020-11-07 05:00:00 9.9 16 Sudoeste 52 Oeste -- 928.1 -- 88
2020-11-07 04:00:00 11.3 8 Sudeste 21 Sudeste -- 926.9 -- 89
2020-11-07 03:00:00 11.6 6 Este 22 Este -- 927.3 -- 89
2020-11-07 02:00:00 11.8 6 Este 24 Sudoeste -- 927.9 -- 88
2020-11-07 01:00:00 12 12 Sudoeste 34 Oeste -- 929.3 -- 87
2020-11-07 00:00:00 12.8 15 Oeste 33 Oeste -- 928.7 -- 85
2020-11-06 23:00:00 14 9 Sudoeste 38 Sur -- 928.8 -- 81
2020-11-06 22:00:00 16.7 6 Sudoeste 15 Norte -- 927.8 -- 53
2020-11-06 21:00:00 16.4 11 Norte 17 Norte -- 925.8 -- 58
2020-11-06 20:00:00 17.7 4 Sudoeste 20 Sur -- 926.9 -- 51
2020-11-06 19:00:00 17.7 7 Sudeste 17 Sudeste -- 925.9 -- 48
2020-11-06 18:00:00 18.3 3 Sudeste 19 Sudeste -- 925.3 -- 44
2020-11-06 17:00:00 18.9 6 Sudeste 13 Sudeste -- 924.9 -- 46
2020-11-06 16:00:00 19.9 2 Sur 14 Este -- 925.3 -- 45
2020-11-06 15:00:00 20.3 4 Este 18 Este -- 925.3 -- 42
2020-11-06 14:00:00 20.3 4 Norte 12 Este -- 925.7 -- 48
2020-11-06 13:00:00 19.5 4 Nordeste 11 Sudeste -- 926.5 -- 45
2020-11-06 12:00:00 18.8 3 Este 15 Este -- 927.3 -- 46
2020-11-06 11:00:00 17.9 6 Este 20 Este -- 927.5 0.7 47
2020-11-06 10:00:00 15.9 5 Este 17 Este -- 927.4 -- 51
2020-11-06 09:00:00 15.4 6 Este 18 Este -- 927.4 -- 51
2020-11-06 08:00:00 15.2 5 Nordeste 21 Este -- 926.8 -- 48
2020-11-06 07:00:00 15.1 4 Nordeste 18 Nordeste -- 926.9 -- 45
2020-11-06 06:00:00 15.4 5 Nordeste 25 Este -- 927.3 -- 45
2020-11-06 05:00:00 15.1 5 Nordeste 20 Nordeste -- 927.3 -- 48
2020-11-06 04:00:00 14.9 6 Nordeste 18 Nordeste -- 928 -- 52
2020-11-06 03:00:00 13.9 5 Nordeste 18 Este -- 928.5 -- 55
2020-11-06 02:00:00 12.9 8 Norte 17 Este -- 928.8 -- 64
2020-11-06 01:00:00 12.9 4 Este 11 Nordeste -- 929.1 -- 62
2020-11-06 00:00:00 13 3 Nordeste 18 Este -- 928.8 -- 64
2020-11-05 23:00:00 12.7 4 Nordeste 16 Este -- 929.1 -- 67
2020-11-05 22:00:00 12.8 4 Este 13 Este -- 929.1 -- 68
2020-11-05 21:00:00 12.9 5 Este 14 Este -- 928.8 -- 70
2020-11-05 20:00:00 13.2 6 Este 15 Este -- 928.4 -- 72
2020-11-05 19:00:00 13.5 7 Este 16 Este -- 928 -- 71
2020-11-05 18:00:00 14.1 5 Este 19 Este -- 927.3 -- 71
2020-11-05 17:00:00 15.4 8 Este 25 Este -- 927 -- 67
2020-11-05 16:00:00 15.7 6 Este 25 Este -- 926.7 -- 70
2020-11-05 15:00:00 14.8 5 Nordeste 21 Este -- 926.8 -- 76
2020-11-05 14:00:00 13.9 6 Nordeste 21 Este -- 927 -- 83
2020-11-05 13:00:00 13.1 4 Nordeste 19 Nordeste -- 928.1 -- 85
2020-11-05 12:00:00 13.1 4 Este 12 Este -- 928.7 -- 83
2020-11-05 11:00:00 12.9 5 Este 14 Este -- 928.7 -- 82
2020-11-05 10:00:00 12.6 5 Este 20 Este -- 928.3 -- 79
2020-11-05 09:00:00 12.1 6 Este 24 Este -- 927.5 -- 84
2020-11-05 08:00:00 11.5 7 Nordeste 26 Este -- 926.9 -- 87
2020-11-05 07:00:00 11.3 4 Nordeste 28 Nordeste -- 926.6 -- 87
2020-11-05 06:00:00 11.2 8 Nordeste 23 Este -- 926.6 -- 87
2020-11-05 05:00:00 11.5 3 Oeste 15 Este -- 926.9 -- 84
2020-11-05 04:00:00 12.1 5 Sudeste 27 Este -- 927 -- 78
2020-11-05 03:00:00 12.1 8 Nordeste 31 Nordeste -- 926.3 -- 74
2020-11-05 02:00:00 12.2 8 Nordeste 28 Este -- 926 -- 71
2020-11-05 01:00:00 11.8 7 Nordeste 25 Nordeste -- 926.2 -- 75
2020-11-05 00:00:00 11.2 5 Nordeste 22 Este -- 926.9 -- 79
2020-11-04 23:00:00 10.8 5 Nordeste 30 Este -- 926.9 -- 83
2020-11-04 22:00:00 11.2 6 Nordeste 21 Este -- 926.5 -- 85
2020-11-04 21:00:00 11.1 7 Nordeste 14 Nordeste -- 926.4 -- 85
2020-11-04 20:00:00 12.2 4 Este 18 Nordeste -- 926.8 -- 77
2020-11-04 19:00:00 12 8 Nordeste 13 Norte -- 926.3 -- 75
2020-11-04 18:00:00 12.6 5 Norte 9 Norte -- 926 -- 77
2020-11-04 17:00:00 13.3 3 Sudoeste 13 Sudeste -- 926.3 -- 73
2020-11-04 16:00:00 13.8 6 Sudeste 18 Sudeste -- 926.6 -- 74
2020-11-04 15:00:00 14.2 8 Sudeste 18 Sudeste -- 927 -- 71
2020-11-04 14:00:00 13.9 7 Sudeste 17 Sudeste -- 927.6 -- 71
2020-11-04 13:00:00 13.1 5 Sudeste 13 Este -- 928.4 -- 82
2020-11-04 12:00:00 12.9 5 Sudeste 12 Sudeste -- 929.4 -- 86
2020-11-04 11:00:00 12.1 3 Sudeste 14 Sur -- 930.3 0.3 88
2020-11-04 10:00:00 11.6 6 Sur 15 Sur -- 930.6 -- 88
2020-11-04 09:00:00 11.6 3 Sur 10 Sudeste -- 930.3 -- 88
2020-11-04 08:00:00 11.5 4 Sur 10 Este -- 930 -- 88
2020-11-04 07:00:00 11.5 5 Sudeste 12 Sudeste -- 929.9 -- 88
2020-11-04 06:00:00 11.6 3 Este 10 Sur -- 930.5 -- 86
2020-11-04 05:00:00 11.9 4 Sur 14 Sudoeste -- 931.4 -- 85
2020-11-04 04:00:00 12 3 Noroeste 23 Noroeste -- 931.7 -- 84
2020-11-04 03:00:00 13.4 13 Norte 27 Norte -- 932.1 -- 73
2020-11-04 02:00:00 13.6 19 Norte 33 Noroeste -- 932.5 -- 70
2020-11-04 01:00:00 13.7 13 Norte 30 Norte -- 933.3 -- 67
2020-11-04 00:00:00 14.4 15 Norte 36 Nordeste -- 933.6 -- 62
2020-11-03 23:00:00 14.9 15 Norte 41 Norte -- 934 -- 57
2020-11-03 22:00:00 15 14 Norte 39 Norte -- 934.1 -- 55
2020-11-03 21:00:00 15.4 23 Norte 50 Norte -- 934.2 -- 53
2020-11-03 20:00:00 16 26 Norte 56 Norte -- 934 -- 55
2020-11-03 19:00:00 17.7 24 Norte 54 Norte -- 933.8 -- 51
2020-11-03 18:00:00 19.1 15 Norte 29 Nordeste -- 933.3 -- 47
2020-11-03 17:00:00 20.5 13 Norte 24 Norte -- 933 -- 40
2020-11-03 16:00:00 21.6 11 Noroeste 24 Norte -- 933.2 -- 37
2020-11-03 15:00:00 22.3 4 Norte 17 Norte -- 933.2 -- 28
2020-11-03 14:00:00 21.5 3 Nordeste 12 Nordeste -- 933.6 -- 30
2020-11-03 13:00:00 20.2 6 Noroeste 12 Noroeste -- 934.4 -- 39
2020-11-03 12:00:00 19 4 Norte 13 Norte -- 934.9 -- 48
2020-11-03 11:00:00 17 6 Norte 18 Nordeste -- 935 -- 54
2020-11-03 10:00:00 14.8 6 Nordeste 17 Nordeste -- 935.1 -- 61
2020-11-03 09:00:00 13.1 7 Norte 12 Nordeste -- 934.9 -- 66
2020-11-03 08:00:00 12.8 5 Norte 9 Nordeste -- 934.5 -- 65
2020-11-03 07:00:00 13 2 Nordeste 10 Nordeste -- 934.3 -- 65
2020-11-03 06:00:00 13.3 6 Nordeste 9 Nordeste -- 934.1 -- 61
2020-11-03 05:00:00 13.4 3 Norte 6 Norte -- 934.1 -- 57
2020-11-03 04:00:00 13.9 3 Norte 9 Nordeste -- 934.2 -- 56
2020-11-03 03:00:00 14.6 5 Nordeste 15 Nordeste -- 934.2 -- 54
2020-11-03 02:00:00 15.3 6 Nordeste 17 Nordeste -- 934.1 -- 51
2020-11-03 01:00:00 15.9 8 Nordeste 14 Nordeste -- 934.4 -- 45
2020-11-03 00:00:00 16.4 6 Nordeste 13 Nordeste -- 934.7 -- 43
2020-11-02 23:00:00 17 6 Nordeste 15 Nordeste -- 934.7 -- 43
2020-11-02 22:00:00 17.1 5 Nordeste 9 Nordeste -- 934.7 -- 45
2020-11-02 21:00:00 17.8 4 Norte 6 Norte -- 934.5 -- 43
2020-11-02 20:00:00 18.6 3 Oeste 5 Oeste -- 934.3 -- 40
2020-11-02 19:00:00 19.7 4 Noroeste 11 Sudoeste -- 934 -- 36
2020-11-02 18:00:00 22.1 4 Sur 14 Sur -- 933.6 -- 32
2020-11-02 17:00:00 23.8 5 Sudoeste 16 Sudoeste -- 933.4 -- 28
2020-11-02 16:00:00 23.9 7 Sur 23 Sur -- 933.5 -- 27
2020-11-02 15:00:00 23.7 7 Sur 18 Sur -- 933.6 -- 26
2020-11-02 14:00:00 22.8 5 Sudoeste 16 Sur -- 934.2 -- 28
2020-11-02 13:00:00 22 7 Sur 19 Sur -- 935 -- 31
2020-11-02 12:00:00 20.6 5 Sudeste 12 Sur -- 935.5 -- 37
2020-11-02 11:00:00 18.3 3 Norte 6 Nordeste -- 935.7 -- 46
2020-11-02 10:00:00 16.2 2 Sudeste 8 Sudeste -- 935.6 -- 53
2020-11-02 09:00:00 14 0 Calma 6 Norte -- 935.3 -- 59
2020-11-02 08:00:00 13.4 5 Norte 7 Noroeste -- 934.8 -- 59
2020-11-02 07:00:00 13.5 3 Noroeste 5 Norte -- 934.6 -- 58
2020-11-02 06:00:00 13.6 4 Noroeste 7 Nordeste -- 934.5 -- 57
2020-11-02 05:00:00 13.6 5 Nordeste 7 Nordeste -- 934.5 -- 57
2020-11-02 04:00:00 14.1 3 Norte 6 Noroeste -- 934.6 -- 55
2020-11-02 03:00:00 14.7 2 Norte 5 Noroeste -- 935 -- 52
2020-11-02 02:00:00 15.2 3 Noroeste 6 Norte -- 935.1 -- 50
2020-11-02 01:00:00 15.4 4 Noroeste 8 Nordeste -- 935.4 -- 51
2020-11-02 00:00:00 15.9 4 Norte 8 Nordeste -- 935.7 -- 49
2020-11-01 23:00:00 16.8 4 Nordeste 13 Nordeste -- 935.8 -- 46
2020-11-01 22:00:00 17.3 8 Nordeste 16 Nordeste -- 935.7 -- 45
2020-11-01 21:00:00 17.7 5 Norte 7 Nordeste -- 935.5 -- 44
2020-11-01 20:00:00 18.7 4 Norte 6 Noroeste -- 935.5 -- 41
2020-11-01 19:00:00 19.6 3 Sudoeste 6 Sur -- 935.3 -- 38
2020-11-01 18:00:00 21.9 3 Sur 11 Sudoeste -- 935 -- 33
2020-11-01 17:00:00 23.7 5 Sudoeste 14 Sur -- 934.9 -- 30
2020-11-01 16:00:00 23.8 6 Sur 15 Sur -- 935.1 -- 29
2020-11-01 15:00:00 23.3 4 Oeste 12 Sudoeste -- 935.4 -- 29
2020-11-01 14:00:00 22.8 4 Sudeste 13 Noroeste -- 935.9 -- 30
2020-11-01 13:00:00 21.7 4 Sur 13 Sur -- 936.7 -- 34
2020-11-01 12:00:00 20.4 5 Sudeste 15 Este -- 937.3 -- 41
2020-11-01 11:00:00 17.6 6 Norte 17 Norte -- 937.5 -- 48
2020-11-01 10:00:00 15 8 Nordeste 14 Norte -- 937.5 -- 56
2020-11-01 09:00:00 13.3 4 Nordeste 6 Nordeste -- 936.9 -- 62
2020-11-01 08:00:00 12.8 5 Nordeste 10 Nordeste -- 936.3 -- 63
2020-11-01 07:00:00 13.5 6 Nordeste 14 Norte -- 936.4 -- 61
2020-11-01 06:00:00 13.6 7 Nordeste 16 Nordeste -- 936.1 -- 61
2020-11-01 05:00:00 14.1 7 Nordeste 19 Nordeste -- 936.5 -- 59
2020-11-01 04:00:00 14.5 6 Nordeste 16 Nordeste -- 936.7 -- 56
2020-11-01 03:00:00 14.8 9 Nordeste 15 Nordeste -- 936.9 -- 54
2020-11-01 02:00:00 14.7 7 Nordeste 15 Nordeste -- 937 -- 54
2020-11-01 01:00:00 15.3 7 Nordeste 12 Nordeste -- 937.2 -- 51
2020-11-01 00:00:00 16.1 2 Nordeste 13 Nordeste -- 937.1 -- 47
2020-10-31 23:00:00 16.9 4 Nordeste 12 Nordeste -- 937.3 -- 45
2020-10-31 22:00:00 17.1 5 Nordeste 11 Nordeste -- 937 -- 44
2020-10-31 21:00:00 17.6 3 Nordeste 8 Noroeste -- 936.6 -- 45
2020-10-31 20:00:00 18.4 3 Noroeste 8 Sudoeste -- 936.5 -- 44
2020-10-31 19:00:00 19.6 4 Sur 12 Sudoeste -- 936.1 -- 41
2020-10-31 18:00:00 21.9 5 Sur 13 Sur -- 935.8 -- 34
2020-10-31 17:00:00 23.5 5 Sur 21 Sur -- 935.8 -- 30
2020-10-31 16:00:00 23.6 6 Sur 18 Sudeste -- 935.7 -- 31
2020-10-31 15:00:00 23.4 6 Sur 15 Sudoeste -- 935.9 -- 31
2020-10-31 14:00:00 22.6 5 Sur 13 Sudoeste -- 936.5 -- 34
2020-10-31 13:00:00 21.4 5 Sur 14 Sur -- 937.1 -- 38
2020-10-31 12:00:00 20.3 4 Sudeste 10 Sudeste -- 937.7 -- 40
2020-10-31 11:00:00 18.1 2 Norte 6 Noroeste -- 937.8 -- 47
2020-10-31 10:00:00 15.7 4 Norte 6 Noroeste -- 937.9 -- 59
2020-10-31 09:00:00 13.6 4 Norte 5 Norte -- 937.4 -- 61
2020-10-31 08:00:00 13.1 3 Nordeste 6 Este -- 936.9 -- 60
2020-10-31 07:00:00 13.5 3 Este 7 Este -- 936.4 -- 59
2020-10-31 06:00:00 13.7 3 Nordeste 5 Nordeste -- 936.3 -- 59
2020-10-31 05:00:00 14.2 4 Norte 9 Sudeste -- 936.1 -- 57
2020-10-31 04:00:00 14.8 3 Norte 5 Norte -- 936 -- 54
2020-10-31 03:00:00 14.9 4 Norte 6 Norte -- 936.2 -- 54
2020-10-31 02:00:00 15.2 4 Norte 10 Nordeste -- 936.4 -- 52
2020-10-31 01:00:00 16 6 Nordeste 12 Nordeste -- 936.4 -- 49
2020-10-31 00:00:00 16.8 8 Nordeste 21 Norte -- 936.5 -- 46
2020-10-30 23:00:00 17.8 11 Nordeste 21 Nordeste -- 936.5 -- 43
2020-10-30 22:00:00 17.7 8 Nordeste 20 Norte -- 936.5 -- 42
2020-10-30 21:00:00 18.4 12 Norte 23 Norte -- 936.3 -- 40
2020-10-30 20:00:00 18.5 8 Norte 17 Nordeste -- 936.2 -- 40
2020-10-30 19:00:00 20.1 13 Norte 22 Norte -- 935.9 -- 35
2020-10-30 18:00:00 21.8 11 Norte 22 Norte -- 935.7 -- 32
2020-10-30 17:00:00 23.4 9 Nordeste 18 Norte -- 935.4 -- 30
2020-10-30 16:00:00 23.9 3 Nordeste 17 Norte -- 935.5 -- 32
2020-10-30 15:00:00 23.2 3 Noroeste 12 Sur -- 935.8 -- 33
2020-10-30 14:00:00 22.5 3 Noroeste 12 Este -- 936.3 -- 37
2020-10-30 13:00:00 21.2 3 Noroeste 14 Este -- 936.9 -- 42
2020-10-30 12:00:00 19.3 3 Nordeste 12 Nordeste -- 937.5 -- 51
2020-10-30 11:00:00 16.2 5 Norte 9 Norte -- 937.7 -- 62
2020-10-30 10:00:00 14.1 4 Nordeste 10 Nordeste -- 937.8 -- 69
2020-10-30 09:00:00 12 5 Nordeste 14 Nordeste -- 937.3 -- 76
2020-10-30 08:00:00 11.2 6 Nordeste 13 Nordeste -- 936.8 -- 79
2020-10-30 07:00:00 11.4 5 Nordeste 14 Nordeste -- 936.7 -- 77
2020-10-30 06:00:00 11.7 8 Nordeste 15 Nordeste -- 936.8 -- 77
2020-10-30 05:00:00 12.4 3 Nordeste 12 Este -- 936.6 -- 73
2020-10-30 04:00:00 12.8 4 Nordeste 13 Nordeste -- 936.7 -- 72
2020-10-30 03:00:00 13 4 Norte 12 Nordeste -- 936.9 -- 70
2020-10-30 02:00:00 14.1 7 Nordeste 19 Nordeste -- 937 -- 67
2020-10-30 01:00:00 14.8 11 Nordeste 19 Nordeste -- 937.2 -- 65
2020-10-30 00:00:00 14.5 10 Nordeste 19 Nordeste -- 937.4 -- 66
2020-10-29 23:00:00 14.8 12 Norte 19 Nordeste -- 937.4 -- 65
2020-10-29 22:00:00 15.3 13 Norte 24 Nordeste -- 937.3 -- 64
2020-10-29 21:00:00 16.1 13 Norte 26 Norte -- 937.1 -- 61
2020-10-29 20:00:00 16.9 12 Norte 17 Norte -- 937.1 -- 57
2020-10-29 19:00:00 18 13 Norte 21 Norte -- 936.7 -- 52
2020-10-29 18:00:00 20.2 5 Nordeste 12 Norte -- 936.2 -- 45
2020-10-29 17:00:00 21.2 4 Nordeste 12 Norte -- 936.1 -- 41
2020-10-29 16:00:00 21.2 5 Noroeste 12 Noroeste -- 936.1 -- 42
2020-10-29 15:00:00 20 4 Nordeste 22 Norte -- 936.4 -- 48
2020-10-29 14:00:00 18.3 13 Nordeste 26 Nordeste -- 937.1 -- 59
2020-10-29 13:00:00 16.6 14 Nordeste 24 Nordeste -- 937.8 -- 65
2020-10-29 12:00:00 15 12 Nordeste 22 Nordeste -- 938.1 -- 71
2020-10-29 11:00:00 13.1 13 Norte 23 Norte -- 938.1 -- 75
2020-10-29 10:00:00 11 6 Nordeste 22 Nordeste -- 937.9 -- 84
2020-10-29 09:00:00 9.6 10 Nordeste 24 Nordeste -- 937.4 -- 85
2020-10-29 08:00:00 10.2 8 Nordeste 23 Nordeste -- 936.6 -- 85
2020-10-29 07:00:00 10.3 10 Nordeste 24 Norte -- 936.4 -- 84
2020-10-29 06:00:00 10.4 14 Norte 28 Norte -- 936.3 -- 85
2020-10-29 05:00:00 10.9 10 Nordeste 20 Nordeste -- 936 -- 85
2020-10-29 04:00:00 11.9 9 Nordeste 17 Nordeste -- 935.7 -- 83
2020-10-29 03:00:00 12.4 5 Nordeste 15 Nordeste -- 935.7 -- 82
2020-10-29 02:00:00 12.2 7 Nordeste 17 Nordeste -- 935.9 -- 81
2020-10-29 01:00:00 12.6 9 Nordeste 17 Norte -- 935.9 -- 80
2020-10-29 00:00:00 13 10 Nordeste 19 Nordeste -- 936 -- 77
2020-10-28 23:00:00 13.5 7 Nordeste 18 Norte -- 936.1 -- 74
2020-10-28 22:00:00 13.6 6 Nordeste 19 Nordeste -- 936 -- 73
2020-10-28 21:00:00 14.3 9 Nordeste 15 Nordeste -- 935.6 -- 71
2020-10-28 20:00:00 14.9 2 Norte 8 Norte -- 935.2 -- 67
2020-10-28 19:00:00 16 5 Norte 16 Norte -- 934.6 -- 62
2020-10-28 18:00:00 17.4 13 Norte 26 Norte -- 934.1 -- 56
2020-10-28 17:00:00 18.4 17 Norte 30 Norte -- 933.9 -- 50
2020-10-28 16:00:00 19.3 9 Nordeste 21 Norte -- 933.8 -- 48
2020-10-28 15:00:00 18.8 4 Sur 12 Este -- 933.8 -- 46
2020-10-28 14:00:00 17.7 4 Sudeste 13 Este -- 933.9 -- 51
2020-10-28 13:00:00 16.2 4 Nordeste 12 Norte -- 934.3 -- 54
2020-10-28 12:00:00 14.1 4 Nordeste 13 Norte -- 934.9 -- 62
2020-10-28 11:00:00 12.3 5 Nordeste 14 Nordeste -- 934.8 -- 70
2020-10-28 10:00:00 10.4 2 Norte 8 Norte -- 934.5 -- 77
2020-10-28 09:00:00 8 3 Nordeste 8 Norte -- 934 -- 80
2020-10-28 08:00:00 7.5 2 Norte 7 Noroeste -- 933.4 -- 78
2020-10-28 07:00:00 7.5 4 Noroeste 6 Noroeste -- 932.9 -- 78
2020-10-28 06:00:00 7.4 3 Norte 9 Este -- 932.6 -- 79
2020-10-28 05:00:00 7.6 3 Nordeste 10 Nordeste -- 932.4 -- 79
2020-10-28 04:00:00 7.9 3 Nordeste 10 Nordeste -- 932.4 -- 77
2020-10-28 03:00:00 7.7 7 Nordeste 12 Nordeste -- 932.4 -- 76
2020-10-28 02:00:00 7.8 7 Nordeste 12 Nordeste -- 932.5 -- 75
2020-10-28 01:00:00 8.1 4 Nordeste 13 Nordeste -- 932.5 -- 74
2020-10-28 00:00:00 8.1 5 Norte 8 Norte -- 932.8 -- 73